createdAt,value
2023-02-02T00:04:51.710Z,6.9
2023-02-02T00:09:51.507Z,6.8
2023-02-02T00:14:51.385Z,6.8
2023-02-02T00:19:51.265Z,6.8
2023-02-02T00:24:51.192Z,6.7
2023-02-02T00:29:51.062Z,6.7
2023-02-02T00:34:50.959Z,6.8
2023-02-02T00:39:53.351Z,6.8
2023-02-02T00:44:50.667Z,6.9
2023-02-02T00:49:50.550Z,6.9
2023-02-02T00:54:50.444Z,7.0
2023-02-02T00:59:50.344Z,7.1
2023-02-02T01:04:52.195Z,7.2
2023-02-02T01:09:50.083Z,7.2
2023-02-02T01:19:51.919Z,7.2
2023-02-02T01:24:49.829Z,7.2
2023-02-02T01:29:49.658Z,7.3
2023-02-02T01:34:49.587Z,7.3
2023-02-02T01:44:51.369Z,7.4
2023-02-02T01:49:49.382Z,7.4
2023-02-02T01:54:49.187Z,7.6
2023-02-02T02:04:48.959Z,7.8
2023-02-02T02:09:51.385Z,7.8
2023-02-02T02:14:48.740Z,7.8
2023-02-02T02:19:48.638Z,7.8
2023-02-02T02:24:48.577Z,7.9
2023-02-02T02:29:48.468Z,7.8
2023-02-02T02:39:48.344Z,7.8
2023-02-02T02:44:48.256Z,7.8
2023-02-02T02:49:48.161Z,7.8
2023-02-02T02:54:48.064Z,7.8
2023-02-02T02:59:47.966Z,7.7
2023-02-02T03:04:47.888Z,7.7
2023-02-02T03:09:47.836Z,7.8
2023-02-02T03:14:47.778Z,7.7
2023-02-02T03:19:47.689Z,7.6
2023-02-02T03:24:47.639Z,7.6
2023-02-02T03:29:50.001Z,7.7
2023-02-02T03:39:47.335Z,7.8
2023-02-02T03:44:47.272Z,7.7
2023-02-02T03:49:47.180Z,7.6
2023-02-02T03:59:46.984Z,7.5
2023-02-02T04:04:46.889Z,7.5
2023-02-02T04:09:46.793Z,7.6
2023-02-02T04:14:46.724Z,7.5
2023-02-02T04:19:46.619Z,7.6
2023-02-02T04:24:46.565Z,7.6
2023-02-02T04:29:46.443Z,7.5
2023-02-02T04:34:46.384Z,7.4
2023-02-02T04:39:46.402Z,7.4
2023-02-02T04:44:46.391Z,7.4
2023-02-02T04:49:48.274Z,7.4
2023-02-02T04:54:46.047Z,7.4
2023-02-02T04:59:45.949Z,7.5
2023-02-02T05:04:45.952Z,7.5
2023-02-02T05:09:45.808Z,7.5
2023-02-02T05:14:45.736Z,7.6
2023-02-02T05:19:45.637Z,7.6
2023-02-02T05:24:46.120Z,7.6
2023-02-02T05:29:45.498Z,7.5
2023-02-02T05:34:45.383Z,7.4
2023-02-02T05:39:45.266Z,7.2
2023-02-02T05:44:45.152Z,7.1
2023-02-02T05:49:45.083Z,7.0
2023-02-02T05:54:44.913Z,6.9
2023-02-02T05:59:44.814Z,6.9
2023-02-02T06:04:44.696Z,6.7
2023-02-02T06:09:44.620Z,6.6
2023-02-02T06:14:44.460Z,6.6
2023-02-02T06:19:44.328Z,6.6
2023-02-02T06:24:46.184Z,6.7
2023-02-02T06:29:44.047Z,6.8
2023-02-02T06:34:43.916Z,6.8
2023-02-02T06:39:44.062Z,6.9
2023-02-02T06:49:43.628Z,6.9
2023-02-02T06:54:45.526Z,6.9
2023-02-02T06:59:43.390Z,6.9
2023-02-02T07:04:43.297Z,6.9
2023-02-02T07:09:43.169Z,6.9
2023-02-02T07:14:43.099Z,6.9
2023-02-02T07:19:43.077Z,7.1
2023-02-02T07:24:42.891Z,7.1
2023-02-02T07:29:42.813Z,7.0
2023-02-02T07:34:42.741Z,7.0
2023-02-02T07:39:42.694Z,7.0
2023-02-02T07:44:44.580Z,7.1
2023-02-02T07:54:42.408Z,7.2
2023-02-02T07:59:42.342Z,7.3
2023-02-02T08:04:42.309Z,7.4
2023-02-02T08:09:42.201Z,7.4
2023-02-02T08:14:42.160Z,7.4
2023-02-02T08:19:42.099Z,7.5
2023-02-02T08:24:44.006Z,7.6
2023-02-02T08:29:41.905Z,7.7
2023-02-02T08:34:44.406Z,7.8
2023-02-02T08:39:41.873Z,7.9
2023-02-02T08:45:59.397Z,8.1
2023-02-02T08:49:41.694Z,8.2
2023-02-02T08:54:41.860Z,8.4
2023-02-02T08:59:41.552Z,8.5
2023-02-02T09:04:41.525Z,8.8
2023-02-02T09:09:41.475Z,8.9
2023-02-02T09:14:41.446Z,8.9
2023-02-02T09:19:41.411Z,9.0
2023-02-02T09:29:41.365Z,9.2
2023-02-02T09:34:41.457Z,9.3
2023-02-02T09:39:41.337Z,9.4
2023-02-02T09:44:41.367Z,9.6
2023-02-02T09:49:41.359Z,9.8
2023-02-02T09:54:41.395Z,10.0
2023-02-02T09:59:41.391Z,10.0
2023-02-02T10:04:41.398Z,10.1
2023-02-02T10:09:41.373Z,10.1
2023-02-02T10:14:43.409Z,10.2
2023-02-02T10:19:43.486Z,10.4
2023-02-02T10:24:41.460Z,10.6
2023-02-02T11:28:16.597Z,11.8
2023-02-02T11:28:16.691Z,11.8
2023-02-02T11:29:41.852Z,11.8
2023-02-02T11:34:41.851Z,11.8
2023-02-02T11:39:41.873Z,11.9
2023-02-02T11:49:41.964Z,12.0
2023-02-02T12:09:42.025Z,12.2
2023-02-02T12:14:42.105Z,12.3
2023-02-02T12:19:42.123Z,12.4
2023-02-02T12:24:42.193Z,12.3
2023-02-02T12:29:42.255Z,12.2
2023-02-02T12:34:42.360Z,12.1
2023-02-02T12:39:42.426Z,12.2
2023-02-02T12:44:42.557Z,12.2
2023-02-02T12:54:50.140Z,12.7
2023-02-02T12:59:45.260Z,12.6
2023-02-02T13:09:42.982Z,12.8
2023-02-02T13:14:43.079Z,12.6
2023-02-02T13:19:43.145Z,12.4
2023-02-02T13:24:43.267Z,12.4
2023-02-02T13:32:32.983Z,12.4
2023-02-02T13:34:43.409Z,12.4
2023-02-02T13:39:43.528Z,12.6
2023-02-02T13:44:43.590Z,12.6
2023-02-02T13:49:43.795Z,12.4
2023-02-02T13:54:45.594Z,12.2
2023-02-02T13:59:43.951Z,12.4
2023-02-02T14:04:44.022Z,12.4
2023-02-02T14:14:44.183Z,12.6
2023-02-02T14:19:44.287Z,12.6
2023-02-02T14:24:44.626Z,12.8
2023-02-02T14:29:46.423Z,12.8
2023-02-02T14:34:44.591Z,12.8
2023-02-02T14:39:44.706Z,12.6
2023-02-02T14:44:44.798Z,12.6
2023-02-02T14:49:44.917Z,12.4
2023-02-02T14:54:44.974Z,12.4
2023-02-02T14:59:45.008Z,12.5
2023-02-02T15:04:45.106Z,12.4
2023-02-02T15:09:45.202Z,12.2
2023-02-02T15:14:45.223Z,12.3
2023-02-02T15:19:45.296Z,12.3
2023-02-02T15:24:45.339Z,12.2
2023-02-02T15:29:45.381Z,12.1
2023-02-02T15:34:45.422Z,11.9
2023-02-02T15:44:45.466Z,11.7
2023-02-02T15:49:45.536Z,11.6
2023-02-02T15:54:45.571Z,11.6
2023-02-02T16:04:45.614Z,11.6
2023-02-02T16:09:45.662Z,11.6
2023-02-02T16:19:45.684Z,11.5
2023-02-02T16:24:45.676Z,11.4
2023-02-02T16:29:45.760Z,11.5
2023-02-02T16:34:46.731Z,11.4
2023-02-02T16:39:45.739Z,11.4
2023-02-02T16:44:45.760Z,11.3
2023-02-02T16:49:45.781Z,11.3
2023-02-02T16:54:45.775Z,11.3
2023-02-02T16:59:45.784Z,11.2
2023-02-02T17:09:45.754Z,11.1
2023-02-02T17:14:45.730Z,11.1
2023-02-02T17:19:45.676Z,11.1
2023-02-02T17:27:01.326Z,11.1
2023-02-02T17:29:45.646Z,11.0
2023-02-02T17:34:48.132Z,11.0
2023-02-02T17:39:45.604Z,11.0
2023-02-02T17:44:48.100Z,11.0
2023-02-02T17:49:45.590Z,11.0
2023-02-02T17:54:45.622Z,11.0
2023-02-02T17:59:45.504Z,11.0
2023-02-02T18:04:45.795Z,11.0
2023-02-02T18:09:45.392Z,11.0
2023-02-02T18:14:45.394Z,10.9
2023-02-02T18:19:45.465Z,10.9
2023-02-02T18:24:45.448Z,10.9
2023-02-02T18:29:45.241Z,10.9
2023-02-02T18:34:45.218Z,10.8
2023-02-02T18:39:45.127Z,10.9
2023-02-02T18:44:45.095Z,10.8
2023-02-02T18:49:45.062Z,10.8
2023-02-02T18:54:47.371Z,10.9
2023-02-02T18:59:44.950Z,10.9
2023-02-02T19:04:44.948Z,10.8
2023-02-02T19:09:44.956Z,10.7
2023-02-02T19:14:44.886Z,10.7
2023-02-02T19:19:44.871Z,10.6
2023-02-02T19:24:44.888Z,10.5
2023-02-02T19:29:44.836Z,10.5
2023-02-02T19:34:44.767Z,10.6
2023-02-02T19:39:44.708Z,10.6
2023-02-02T19:44:44.690Z,10.6
2023-02-02T19:49:44.642Z,10.6
2023-02-02T19:54:44.642Z,10.6
2023-02-02T19:59:44.573Z,10.5
2023-02-02T20:04:44.526Z,10.6
2023-02-02T20:09:44.457Z,10.6
2023-02-02T20:14:46.952Z,10.4
2023-02-02T20:19:44.387Z,10.4
2023-02-02T20:24:44.336Z,10.4
2023-02-02T20:29:44.291Z,10.4
2023-02-02T20:34:44.255Z,10.4
2023-02-02T20:39:44.189Z,10.4
2023-02-02T20:44:44.158Z,10.4
2023-02-02T20:49:46.057Z,10.4
2023-02-02T20:54:44.050Z,10.3
2023-02-02T21:09:45.900Z,10.2
2023-02-02T21:14:43.922Z,10.2
2023-02-02T21:19:43.864Z,10.1
2023-02-02T21:24:43.858Z,10.1
2023-02-02T21:29:43.779Z,10.1
2023-02-02T21:34:43.750Z,10.0
2023-02-02T21:39:43.697Z,10.0
2023-02-02T21:44:43.638Z,10.0
2023-02-02T21:49:43.559Z,9.9
2023-02-02T21:54:43.520Z,9.9
2023-02-02T21:59:43.488Z,9.9
2023-02-02T22:04:43.443Z,9.9
2023-02-02T22:09:43.366Z,9.9
2023-02-02T22:14:43.348Z,9.9
2023-02-02T22:24:43.369Z,9.8
2023-02-02T22:29:43.321Z,9.8
2023-02-02T22:34:43.294Z,9.8
2023-02-02T22:39:43.239Z,9.8
2023-02-02T22:49:43.122Z,9.7
2023-02-02T22:54:43.117Z,9.6
2023-02-02T22:59:43.108Z,9.8
2023-02-02T23:04:43.110Z,9.8
2023-02-02T23:09:43.038Z,9.6
2023-02-02T23:14:43.035Z,9.6
2023-02-02T23:19:43.019Z,9.6
2023-02-02T23:24:42.960Z,9.6
2023-02-02T23:29:42.938Z,9.4
2023-02-02T23:34:42.870Z,9.3
2023-02-02T23:39:42.798Z,9.2
2023-02-02T23:44:44.739Z,9.2
2023-02-02T23:49:42.920Z,9.2
2023-02-02T23:54:42.667Z,9.2
2023-02-02T23:59:42.597Z,9.1
